Pedro Canario, Brazil
Current Conditions -  °F | °C
As of 2:00 AM on Saturday 25 Oct 2014 (Local Time) from SBPS Reporting Station
Broken Clouds Broken Clouds  
Wind Chill: 73°   Ceiling: 5000
Heat Index: 73°   Visibility: 6mi
Dew Point: 70°   Wind: 0mph
Humidity: 88%   Direction: NA
Pressure: 29.94"   Gusts: NA
Location:  18.03°S, 40.15°W
Report Text: SBPS 250400Z 00000KT 9999 SCT015 SCT020 BKN050 23/21 Q1014
Loading
Personal Weather Stations






























Interactive Weather Map
Tropical Storm Tracking
New forecast layout! Learn more

10-Day Weather Forecast

Advertisements
Track Severe Weather on mobile